sensor_id;sensor_type;location;lat;lon;timestamp;pressure;altitude;pressure_sealevel;temperature;humidity
37078;BME280;22989;55.998;37.212;2023-07-31T00:00:06;38177.78;;;-145.39;50.40
37078;BME280;22989;55.998;37.212;2023-07-31T00:02:31;38090.03;;;-145.39;50.44
37078;BME280;22989;55.998;37.212;2023-07-31T00:04:57;38156.34;;;-145.39;50.45
37078;BME280;22989;55.998;37.212;2023-07-31T00:07:23;38150.50;;;-145.39;50.56
37078;BME280;22989;55.998;37.212;2023-07-31T00:09:48;38144.63;;;-145.39;50.62
37078;BME280;22989;55.998;37.212;2023-07-31T00:12:14;38193.41;;;-145.39;50.61
37078;BME280;22989;55.998;37.212;2023-07-31T00:14:39;38187.53;;;-145.39;50.78
37078;BME280;22989;55.998;37.212;2023-07-31T00:17:05;38193.41;;;-145.39;50.71
37078;BME280;22989;55.998;37.212;2023-07-31T00:19:30;38177.78;;;-145.39;51.02
37078;BME280;22989;55.998;37.212;2023-07-31T00:21:56;38160.25;;;-145.39;50.87
37078;BME280;22989;55.998;37.212;2023-07-31T00:24:22;38251.91;;;-145.39;50.94
37078;BME280;22989;55.998;37.212;2023-07-31T00:26:47;38267.50;;;-145.39;51.06
37078;BME280;22989;55.998;37.212;2023-07-31T00:29:13;38197.28;;;-145.39;51.20
37078;BME280;22989;55.998;37.212;2023-07-31T00:31:38;38236.31;;;-145.39;51.19
37078;BME280;22989;55.998;37.212;2023-07-31T00:34:04;38142.69;;;-145.39;51.22
37078;BME280;22989;55.998;37.212;2023-07-31T00:36:29;38150.50;;;-145.39;51.35
37078;BME280;22989;55.998;37.212;2023-07-31T00:38:55;38130.97;;;-145.39;51.31
37078;BME280;22989;55.998;37.212;2023-07-31T00:41:21;38144.63;;;-145.39;51.33
37078;BME280;22989;55.998;37.212;2023-07-31T00:43:47;38097.81;;;-145.39;51.49
37078;BME280;22989;55.998;37.212;2023-07-31T00:46:13;38107.56;;;-145.39;51.52
37078;BME280;22989;55.998;37.212;2023-07-31T00:48:40;37783.81;;;-145.39;51.54
37078;BME280;22989;55.998;37.212;2023-07-31T00:51:07;37840.38;;;-145.39;51.52
37078;BME280;22989;55.998;37.212;2023-07-31T00:53:34;37891.09;;;-145.39;51.53
37078;BME280;22989;55.998;37.212;2023-07-31T00:55:59;37959.34;;;-145.39;51.61
37078;BME280;22989;55.998;37.212;2023-07-31T00:58:25;37996.41;;;-145.39;51.83
37078;BME280;22989;55.998;37.212;2023-07-31T01:00:51;38060.78;;;-145.39;51.66
37078;BME280;22989;55.998;37.212;2023-07-31T01:03:17;38129.03;;;-145.39;51.58
37078;BME280;22989;55.998;37.212;2023-07-31T01:05:52;38232.41;;;-145.39;51.80
37078;BME280;22989;55.998;37.212;2023-07-31T01:08:36;38281.16;;;-145.39;52.01
37078;BME280;22989;55.998;37.212;2023-07-31T01:11:40;38454.75;;;-145.39;52.00
37078;BME280;22989;55.998;37.212;2023-07-31T01:14:08;38585.47;;;-145.39;51.96
37078;BME280;22989;55.998;37.212;2023-07-31T01:16:34;38556.19;;;-145.39;51.96
37078;BME280;22989;55.998;37.212;2023-07-31T01:19:00;38743.47;;;-145.39;52.10
37078;BME280;22989;55.998;37.212;2023-07-31T01:22:05;38741.50;;;-145.39;51.88
37078;BME280;22989;55.998;37.212;2023-07-31T01:27:13;39094.59;;;-145.39;52.00
37078;BME280;22989;55.998;37.212;2023-07-31T01:29:50;39512.13;;;-145.39;52.04
37078;BME280;22989;55.998;37.212;2023-07-31T01:32:19;39744.31;;;-145.39;52.08
37078;BME280;22989;55.998;37.212;2023-07-31T01:34:46;40050.66;;;-145.39;52.16
37078;BME280;22989;55.998;37.212;2023-07-31T01:37:12;40329.72;;;-145.39;52.15
37078;BME280;22989;55.998;37.212;2023-07-31T01:39:38;40306.28;;;-145.39;52.38
37078;BME280;22989;55.998;37.212;2023-07-31T01:42:04;40661.47;;;-145.39;52.36
37078;BME280;22989;55.998;37.212;2023-07-31T01:44:29;40448.75;;;-145.39;52.26
37078;BME280;22989;55.998;37.212;2023-07-31T01:46:56;41455.91;;;-145.39;52.22
37078;BME280;22989;55.998;37.212;2023-07-31T01:49:21;41442.22;;;-145.39;52.44
37078;BME280;22989;55.998;37.212;2023-07-31T01:51:47;41438.31;;;-145.39;52.46
37078;BME280;22989;55.998;37.212;2023-07-31T01:54:12;41475.41;;;-145.39;52.55
37078;BME280;22989;55.998;37.212;2023-07-31T01:56:38;41450.03;;;-145.39;52.53
37078;BME280;22989;55.998;37.212;2023-07-31T01:59:04;41455.91;;;-145.39;52.39
37078;BME280;22989;55.998;37.212;2023-07-31T02:01:29;41106.50;;;-145.39;52.45
37078;BME280;22989;55.998;37.212;2023-07-31T02:03:55;41208.00;;;-145.39;52.48
37078;BME280;22989;55.998;37.212;2023-07-31T02:06:21;38626.41;;;-145.39;52.56
37078;BME280;22989;55.998;37.212;2023-07-31T02:08:48;39153.13;;;-145.39;52.47
37078;BME280;22989;55.998;37.212;2023-07-31T02:11:13;39586.25;;;-145.39;52.48
37078;BME280;22989;55.998;37.212;2023-07-31T02:13:39;40813.72;;;-145.39;52.42
37078;BME280;22989;55.998;37.212;2023-07-31T02:16:05;38833.19;;;-145.39;52.50
37078;BME280;22989;55.998;37.212;2023-07-31T02:18:30;41286.06;;;-145.39;52.44
37078;BME280;22989;55.998;37.212;2023-07-31T02:20:56;39504.31;;;-145.39;52.46
37078;BME280;22989;55.998;37.212;2023-07-31T02:23:21;40351.19;;;-145.39;52.50
37078;BME280;22989;55.998;37.212;2023-07-31T02:25:47;41797.53;;;-145.39;52.44
37078;BME280;22989;55.998;37.212;2023-07-31T02:28:16;41699.91;;;-145.39;52.53
37078;BME280;22989;55.998;37.212;2023-07-31T02:30:45;39836.00;;;-145.39;52.53
37078;BME280;22989;55.998;37.212;2023-07-31T02:33:14;41766.28;;;-145.39;52.47
37078;BME280;22989;55.998;37.212;2023-07-31T02:35:40;42217.28;;;-145.39;52.47
37078;BME280;22989;55.998;37.212;2023-07-31T02:38:06;42510.16;;;-145.39;52.32
37078;BME280;22989;55.998;37.212;2023-07-31T02:40:32;42699.56;;;-145.39;52.39
37078;BME280;22989;55.998;37.212;2023-07-31T02:42:57;42828.44;;;-145.39;52.32
37078;BME280;22989;55.998;37.212;2023-07-31T02:45:23;42851.88;;;-145.39;52.27
37078;BME280;22989;55.998;37.212;2023-07-31T02:47:49;42861.63;;;-145.39;52.12
37078;BME280;22989;55.998;37.212;2023-07-31T02:50:14;42752.28;;;-145.39;52.20
37078;BME280;22989;55.998;37.212;2023-07-31T02:52:40;43094.00;;;-145.39;52.17
37078;BME280;22989;55.998;37.212;2023-07-31T02:55:06;42916.31;;;-145.39;52.17
37078;BME280;22989;55.998;37.212;2023-07-31T02:57:31;42920.22;;;-145.39;52.08
37078;BME280;22989;55.998;37.212;2023-07-31T02:59:57;42881.16;;;-145.39;52.03
37078;BME280;22989;55.998;37.212;2023-07-31T03:02:23;42894.81;;;-145.39;51.98
37078;BME280;22989;55.998;37.212;2023-07-31T03:04:48;40489.75;;;-145.39;51.90
37078;BME280;22989;55.998;37.212;2023-07-31T03:07:14;43215.09;;;-145.39;51.77
37078;BME280;22989;55.998;37.212;2023-07-31T03:09:40;43115.50;;;-145.39;51.98
37078;BME280;22989;55.998;37.212;2023-07-31T03:12:06;43088.16;;;-145.39;51.63
37078;BME280;22989;55.998;37.212;2023-07-31T03:14:31;43242.44;;;-145.39;51.53
37078;BME280;22989;55.998;37.212;2023-07-31T03:16:57;43201.41;;;-145.39;51.49
37078;BME280;22989;55.998;37.212;2023-07-31T03:19:22;41571.06;;;-145.39;51.39
37078;BME280;22989;55.998;37.212;2023-07-31T03:21:48;43271.72;;;-145.39;51.37
37078;BME280;22989;55.998;37.212;2023-07-31T03:24:14;43381.09;;;-145.39;51.29
37078;BME280;22989;55.998;37.212;2023-07-31T03:26:40;43701.41;;;-145.39;51.28
37078;BME280;22989;55.998;37.212;2023-07-31T03:29:07;43625.22;;;-145.39;51.05
37078;BME280;22989;55.998;37.212;2023-07-31T03:31:33;42516.00;;;-145.39;50.04
37078;BME280;22989;55.998;37.212;2023-07-31T03:33:59;40456.56;;;-145.39;48.84
37078;BME280;22989;55.998;37.212;2023-07-31T03:36:26;37928.16;;;-145.39;47.38
37078;BME280;22989;55.998;37.212;2023-07-31T03:38:52;37982.75;;;-145.39;45.36
37078;BME280;22989;55.998;37.212;2023-07-31T03:41:18;37091.56;;;-145.39;43.49
37078;BME280;22989;55.998;37.212;2023-07-31T03:43:50;36173.25;;;-145.39;41.62
37078;BME280;22989;55.998;37.212;2023-07-31T03:46:22;35685.94;;;-145.39;39.31
37078;BME280;22989;55.998;37.212;2023-07-31T03:48:48;34785.50;;;-145.39;37.44
37078;BME280;22989;55.998;37.212;2023-07-31T03:51:13;34725.09;;;-145.39;35.94
37078;BME280;22989;55.998;37.212;2023-07-31T03:53:39;33618.38;;;-145.39;34.68
37078;BME280;22989;55.998;37.212;2023-07-31T03:56:05;32763.22;;;-145.39;33.32
37078;BME280;22989;55.998;37.212;2023-07-31T03:58:30;32511.97;;;-145.39;32.10
37078;BME280;22989;55.998;37.212;2023-07-31T04:00:56;31731.03;;;-145.39;31.16
37078;BME280;22989;55.998;37.212;2023-07-31T04:03:21;31133.28;;;-145.39;30.18
37078;BME280;22989;55.998;37.212;2023-07-31T04:05:47;30817.91;;;-145.39;29.64
37078;BME280;22989;55.998;37.212;2023-07-31T04:08:12;30574.56;;;-145.39;29.22
37078;BME280;22989;55.998;37.212;2023-07-31T04:10:38;30436.34;;;-145.39;28.46
37078;BME280;22989;55.998;37.212;2023-07-31T04:13:03;30541.47;;;-145.39;27.56
37078;BME280;22989;55.998;37.212;2023-07-31T04:15:29;30204.72;;;-145.39;26.93
37078;BME280;22989;55.998;37.212;2023-07-31T04:17:55;28756.81;;;-145.39;26.38
37078;BME280;22989;55.998;37.212;2023-07-31T04:20:20;29350.31;;;-145.39;25.65
37078;BME280;22989;55.998;37.212;2023-07-31T04:22:46;28840.47;;;-145.39;25.39
37078;BME280;22989;55.998;37.212;2023-07-31T04:25:11;28011.66;;;-145.39;25.15
37078;BME280;22989;55.998;37.212;2023-07-31T04:27:37;28120.59;;;-145.39;24.50
37078;BME280;22989;55.998;37.212;2023-07-31T04:30:03;27682.91;;;-145.39;23.93
37078;BME280;22989;55.998;37.212;2023-07-31T04:32:29;26936.00;;;-145.39;24.47
37078;BME280;22989;55.998;37.212;2023-07-31T04:34:55;26998.25;;;-145.39;23.43
37078;BME280;22989;55.998;37.212;2023-07-31T04:37:20;26619.00;;;-145.39;23.55
37078;BME280;22989;55.998;37.212;2023-07-31T04:39:46;26348.69;;;-145.39;23.35
37078;BME280;22989;55.998;37.212;2023-07-31T04:42:12;24803.09;;;-145.39;23.46
37078;BME280;22989;55.998;37.212;2023-07-31T04:44:37;26173.69;;;-145.39;23.46
37078;BME280;22989;55.998;37.212;2023-07-31T04:47:03;25814.00;;;-145.39;23.42
37078;BME280;22989;55.998;37.212;2023-07-31T04:49:29;23792.44;;;-145.39;22.99
37078;BME280;22989;55.998;37.212;2023-07-31T04:51:54;25353.22;;;-145.39;22.52
37078;BME280;22989;55.998;37.212;2023-07-31T04:54:20;25106.34;;;-145.39;22.66
37078;BME280;22989;55.998;37.212;2023-07-31T04:56:45;24851.69;;;-145.39;22.08
37078;BME280;22989;55.998;37.212;2023-07-31T04:59:12;24665.09;;;-145.39;21.99
37078;BME280;22989;55.998;37.212;2023-07-31T05:01:38;24523.19;;;-145.39;22.33
37078;BME280;22989;55.998;37.212;2023-07-31T05:04:03;24519.31;;;-145.39;22.35
37078;BME280;22989;55.998;37.212;2023-07-31T05:06:29;24439.63;;;-145.39;22.13
37078;BME280;22989;55.998;37.212;2023-07-31T05:08:55;24639.81;;;-145.39;22.60
37078;BME280;22989;55.998;37.212;2023-07-31T05:11:20;24773.94;;;-145.39;22.54
37078;BME280;22989;55.998;37.212;2023-07-31T05:13:46;24525.13;;;-145.39;21.80
37078;BME280;22989;55.998;37.212;2023-07-31T05:16:11;24336.59;;;-145.39;21.63
37078;BME280;22989;55.998;37.212;2023-07-31T05:18:37;24324.94;;;-145.39;21.92
37078;BME280;22989;55.998;37.212;2023-07-31T05:21:02;24132.53;;;-145.39;21.79
37078;BME280;22989;55.998;37.212;2023-07-31T05:23:28;24482.38;;;-145.39;21.83
37078;BME280;22989;55.998;37.212;2023-07-31T05:25:54;24501.81;;;-145.39;21.61
37078;BME280;22989;55.998;37.212;2023-07-31T05:28:21;24482.38;;;-145.39;21.48
37078;BME280;22989;55.998;37.212;2023-07-31T05:30:47;24093.66;;;-145.39;21.22
37078;BME280;22989;55.998;37.212;2023-07-31T05:33:12;23815.78;;;-145.39;21.50
37078;BME280;22989;55.998;37.212;2023-07-31T05:35:38;23745.81;;;-145.39;21.02
37078;BME280;22989;55.998;37.212;2023-07-31T05:38:03;23263.91;;;-145.39;20.94
37078;BME280;22989;55.998;37.212;2023-07-31T05:40:32;23316.38;;;-145.39;20.54
37078;BME280;22989;55.998;37.212;2023-07-31T05:42:58;22681.06;;;-145.39;20.89
37078;BME280;22989;55.998;37.212;2023-07-31T05:45:24;22830.66;;;-145.39;20.43
37078;BME280;22989;55.998;37.212;2023-07-31T05:47:50;22360.50;;;-145.39;20.64
37078;BME280;22989;55.998;37.212;2023-07-31T05:50:15;22519.81;;;-145.39;21.00
37078;BME280;22989;55.998;37.212;2023-07-31T05:52:41;22457.66;;;-145.39;21.07
37078;BME280;22989;55.998;37.212;2023-07-31T05:55:08;22585.84;;;-145.39;20.90
37078;BME280;22989;55.998;37.212;2023-07-31T05:57:33;22513.97;;;-145.39;20.76
37078;BME280;22989;55.998;37.212;2023-07-31T05:59:59;22547.00;;;-145.39;20.16
37078;BME280;22989;55.998;37.212;2023-07-31T06:02:24;22401.31;;;-145.39;20.11
37078;BME280;22989;55.998;37.212;2023-07-31T06:04:50;22341.09;;;-145.39;20.46
37078;BME280;22989;55.998;37.212;2023-07-31T06:07:16;22438.22;;;-145.39;20.47
37078;BME280;22989;55.998;37.212;2023-07-31T06:09:41;22438.22;;;-145.39;20.26
37078;BME280;22989;55.998;37.212;2023-07-31T06:12:07;22442.09;;;-145.39;19.88
37078;BME280;22989;55.998;37.212;2023-07-31T06:14:33;22152.66;;;-145.39;19.93
37078;BME280;22989;55.998;37.212;2023-07-31T06:16:58;21985.63;;;-145.39;20.20
37078;BME280;22989;55.998;37.212;2023-07-31T06:19:24;21942.88;;;-145.39;20.26
37078;BME280;22989;55.998;37.212;2023-07-31T06:21:50;22006.97;;;-145.39;19.63
37078;BME280;22989;55.998;37.212;2023-07-31T06:24:15;22014.75;;;-145.39;19.99
37078;BME280;22989;55.998;37.212;2023-07-31T06:26:44;22030.28;;;-145.39;19.93
37078;BME280;22989;55.998;37.212;2023-07-31T06:29:10;22319.72;;;-145.39;19.30
37078;BME280;22989;55.998;37.212;2023-07-31T06:31:35;21814.69;;;-145.39;19.54
37078;BME280;22989;55.998;37.212;2023-07-31T06:34:01;21428.19;;;-145.39;19.23
37078;BME280;22989;55.998;37.212;2023-07-31T06:36:26;21395.19;;;-145.39;19.35
37078;BME280;22989;55.998;37.212;2023-07-31T06:38:52;21292.25;;;-145.39;19.56
37078;BME280;22989;55.998;37.212;2023-07-31T06:41:17;21383.53;;;-145.39;19.45
37078;BME280;22989;55.998;37.212;2023-07-31T06:43:43;21564.13;;;-145.39;19.34
37078;BME280;22989;55.998;37.212;2023-07-31T06:46:09;21626.28;;;-145.39;19.56
37078;BME280;22989;55.998;37.212;2023-07-31T06:48:35;21589.38;;;-145.39;18.79
37078;BME280;22989;55.998;37.212;2023-07-31T06:51:02;21626.28;;;-145.39;18.62
37078;BME280;22989;55.998;37.212;2023-07-31T06:53:28;21783.63;;;-145.39;18.63
37078;BME280;22989;55.998;37.212;2023-07-31T06:55:54;21711.75;;;-145.39;19.23
37078;BME280;22989;55.998;37.212;2023-07-31T06:58:20;21911.81;;;-145.39;18.62
37078;BME280;22989;55.998;37.212;2023-07-31T07:00:45;22370.22;;;-145.39;19.25
37078;BME280;22989;55.998;37.212;2023-07-31T07:03:11;22467.34;;;-145.39;18.99
37078;BME280;22989;55.998;37.212;2023-07-31T07:05:37;22360.50;;;-145.39;19.14
37078;BME280;22989;55.998;37.212;2023-07-31T07:08:02;22513.97;;;-145.39;18.81
37078;BME280;22989;55.998;37.212;2023-07-31T07:10:28;22803.44;;;-145.39;18.76
37078;BME280;22989;55.998;37.212;2023-07-31T07:12:54;22624.72;;;-145.39;18.92
37078;BME280;22989;55.998;37.212;2023-07-31T07:15:20;22684.94;;;-145.39;19.19
37078;BME280;22989;55.998;37.212;2023-07-31T07:17:46;23458.22;;;-145.39;19.12
37078;BME280;22989;55.998;37.212;2023-07-31T07:20:12;23594.25;;;-145.39;18.94
37078;BME280;22989;55.998;37.212;2023-07-31T07:22:37;23421.31;;;-145.39;19.18
37078;BME280;22989;55.998;37.212;2023-07-31T07:25:04;23432.97;;;-145.39;19.00
37078;BME280;22989;55.998;37.212;2023-07-31T07:27:30;23337.75;;;-145.39;19.26
37078;BME280;22989;55.998;37.212;2023-07-31T07:29:56;23364.94;;;-145.39;18.90
37078;BME280;22989;55.998;37.212;2023-07-31T07:32:21;23227.00;;;-145.39;19.22
37078;BME280;22989;55.998;37.212;2023-07-31T07:34:48;23446.56;;;-145.39;18.85
37078;BME280;22989;55.998;37.212;2023-07-31T07:37:13;23570.91;;;-145.39;19.06
37078;BME280;22989;55.998;37.212;2023-07-31T07:39:39;24047.03;;;-145.39;19.02
37078;BME280;22989;55.998;37.212;2023-07-31T07:42:04;24507.66;;;-145.39;19.63
37078;BME280;22989;55.998;37.212;2023-07-31T07:44:30;24923.59;;;-145.39;19.23
37078;BME280;22989;55.998;37.212;2023-07-31T07:46:55;25222.97;;;-145.39;19.50
37078;BME280;22989;55.998;37.212;2023-07-31T07:49:21;25582.63;;;-145.39;19.66
37078;BME280;22989;55.998;37.212;2023-07-31T07:51:50;26243.69;;;-145.39;19.63
37078;BME280;22989;55.998;37.212;2023-07-31T07:54:15;26885.44;;;-145.39;19.67
37078;BME280;22989;55.998;37.212;2023-07-31T07:56:45;27754.88;;;-145.39;19.80
37078;BME280;22989;55.998;37.212;2023-07-31T07:59:11;28704.28;;;-145.39;20.52
37078;BME280;22989;55.998;37.212;2023-07-31T08:01:36;29772.63;;;-145.39;20.99
37078;BME280;22989;55.998;37.212;2023-07-31T08:04:02;30823.75;;;-145.39;21.33
37078;BME280;22989;55.998;37.212;2023-07-31T08:06:27;31900.47;;;-145.39;21.67
37078;BME280;22989;55.998;37.212;2023-07-31T08:08:55;32511.97;;;-145.39;22.08
37078;BME280;22989;55.998;37.212;2023-07-31T08:11:20;32837.22;;;-145.39;22.25
37078;BME280;22989;55.998;37.212;2023-07-31T08:13:48;33170.31;;;-145.39;22.48
37078;BME280;22989;55.998;37.212;2023-07-31T08:16:13;33552.13;;;-145.39;22.70
37078;BME280;22989;55.998;37.212;2023-07-31T08:18:39;33988.53;;;-145.39;22.91
37078;BME280;22989;55.998;37.212;2023-07-31T08:21:05;34586.72;;;-145.39;23.13
37078;BME280;22989;55.998;37.212;2023-07-31T08:23:31;35204.50;;;-145.39;23.59
37078;BME280;22989;55.998;37.212;2023-07-31T08:25:56;35183.06;;;-145.39;23.80
37078;BME280;22989;55.998;37.212;2023-07-31T08:28:22;35847.72;;;-145.39;24.05
37078;BME280;22989;55.998;37.212;2023-07-31T08:30:47;36689.91;;;-145.39;24.60
37078;BME280;22989;55.998;37.212;2023-07-31T08:33:13;37074.00;;;-145.39;24.86
37078;BME280;22989;55.998;37.212;2023-07-31T08:35:38;36958.97;;;-145.39;25.43
37078;BME280;22989;55.998;37.212;2023-07-31T08:38:04;37196.84;;;-145.39;25.74
37078;BME280;22989;55.998;37.212;2023-07-31T08:40:30;37261.19;;;-145.39;25.65
37078;BME280;22989;55.998;37.212;2023-07-31T08:42:55;37417.19;;;-145.39;25.92
37078;BME280;22989;55.998;37.212;2023-07-31T08:45:28;37534.19;;;-145.39;25.95
37078;BME280;22989;55.998;37.212;2023-07-31T08:47:55;37592.72;;;-145.39;26.13
37078;BME280;22989;55.998;37.212;2023-07-31T08:50:21;37600.50;;;-145.39;26.21
37078;BME280;22989;55.998;37.212;2023-07-31T08:52:48;37692.16;;;-145.39;26.33
37078;BME280;22989;55.998;37.212;2023-07-31T08:55:14;37978.84;;;-145.39;26.58
37078;BME280;22989;55.998;37.212;2023-07-31T08:57:41;37916.44;;;-145.39;26.72
37078;BME280;22989;55.998;37.212;2023-07-31T09:00:08;37684.38;;;-145.39;26.92
37078;BME280;22989;55.998;37.212;2023-07-31T09:02:40;38171.94;;;-145.39;27.02
37078;BME280;22989;55.998;37.212;2023-07-31T09:05:07;38166.09;;;-145.39;27.08
37078;BME280;22989;55.998;37.212;2023-07-31T09:07:37;38082.22;;;-145.39;27.15
37078;BME280;22989;55.998;37.212;2023-07-31T09:10:04;38212.91;;;-145.39;27.29
37078;BME280;22989;55.998;37.212;2023-07-31T09:12:30;38474.28;;;-145.39;27.42
37078;BME280;22989;55.998;37.212;2023-07-31T09:15:00;38587.41;;;-145.39;27.53
37078;BME280;22989;55.998;37.212;2023-07-31T09:17:44;38497.69;;;-145.39;27.78
37078;BME280;22989;55.998;37.212;2023-07-31T09:20:14;38433.31;;;-145.39;27.70
37078;BME280;22989;55.998;37.212;2023-07-31T09:22:41;38039.31;;;-145.39;27.70
37078;BME280;22989;55.998;37.212;2023-07-31T09:25:18;38380.66;;;-145.39;27.56
37078;BME280;22989;55.998;37.212;2023-07-31T09:28:00;38335.78;;;-145.39;27.38
37078;BME280;22989;55.998;37.212;2023-07-31T09:30:26;37711.66;;;-145.39;27.54
37078;BME280;22989;55.998;37.212;2023-07-31T09:33:00;37865.75;;;-145.39;27.37
37078;BME280;22989;55.998;37.212;2023-07-31T09:35:33;38066.63;;;-145.39;27.29
37078;BME280;22989;55.998;37.212;2023-07-31T09:38:02;37967.16;;;-145.39;27.58
37078;BME280;22989;55.998;37.212;2023-07-31T09:40:30;38306.53;;;-145.39;27.77
37078;BME280;22989;55.998;37.212;2023-07-31T09:43:04;38261.66;;;-145.39;27.87
37078;BME280;22989;55.998;37.212;2023-07-31T09:45:35;38782.47;;;-145.39;28.11
37078;BME280;22989;55.998;37.212;2023-07-31T09:48:07;38801.97;;;-145.39;28.18
37078;BME280;22989;55.998;37.212;2023-07-31T09:50:37;38694.69;;;-145.39;28.13
37078;BME280;22989;55.998;37.212;2023-07-31T09:53:03;38651.78;;;-145.39;28.44
37078;BME280;22989;55.998;37.212;2023-07-31T09:55:29;38394.28;;;-145.39;28.31
37078;BME280;22989;55.998;37.212;2023-07-31T09:57:56;38134.88;;;-145.39;28.13
37078;BME280;22989;55.998;37.212;2023-07-31T10:00:23;38205.09;;;-145.39;28.28
37078;BME280;22989;55.998;37.212;2023-07-31T10:02:51;38423.56;;;-145.39;28.18
37078;BME280;22989;55.998;37.212;2023-07-31T10:05:17;38361.13;;;-145.39;28.37
37078;BME280;22989;55.998;37.212;2023-07-31T10:07:54;38173.91;;;-145.39;28.37
37078;BME280;22989;55.998;37.212;2023-07-31T10:10:22;38322.13;;;-145.39;28.33
37078;BME280;22989;55.998;37.212;2023-07-31T10:12:49;38589.34;;;-145.39;28.44
37078;BME280;22989;55.998;37.212;2023-07-31T10:15:15;37536.16;;;-145.39;28.45
37078;BME280;22989;55.998;37.212;2023-07-31T10:17:41;38345.53;;;-145.39;28.43
37078;BME280;22989;55.998;37.212;2023-07-31T10:20:07;38316.28;;;-145.39;28.47
37078;BME280;22989;55.998;37.212;2023-07-31T10:22:34;38484.03;;;-145.39;28.43
37078;BME280;22989;55.998;37.212;2023-07-31T10:25:00;38460.63;;;-145.39;28.35
37078;BME280;22989;55.998;37.212;2023-07-31T10:27:26;38407.94;;;-145.39;28.32
37078;BME280;22989;55.998;37.212;2023-07-31T10:29:54;38314.31;;;-145.39;28.43
37078;BME280;22989;55.998;37.212;2023-07-31T10:32:21;38275.31;;;-145.39;28.31
37078;BME280;22989;55.998;37.212;2023-07-31T10:34:48;38205.09;;;-145.39;28.14
37078;BME280;22989;55.998;37.212;2023-07-31T10:37:31;38142.69;;;-145.39;28.29
37078;BME280;22989;55.998;37.212;2023-07-31T10:45:24;38275.31;;;-145.39;28.58
37078;BME280;22989;55.998;37.212;2023-07-31T10:48:04;38384.53;;;-145.39;28.60
37078;BME280;22989;55.998;37.212;2023-07-31T10:50:32;38234.34;;;-145.39;28.50
37078;BME280;22989;55.998;37.212;2023-07-31T10:53:02;38491.81;;;-145.39;28.48
37078;BME280;22989;55.998;37.212;2023-07-31T10:55:41;38757.13;;;-145.39;28.66
37078;BME280;22989;55.998;37.212;2023-07-31T10:58:09;37941.78;;;-145.39;28.74
37078;BME280;22989;55.998;37.212;2023-07-31T11:00:42;38591.31;;;-145.39;28.88
37078;BME280;22989;55.998;37.212;2023-07-31T11:05:59;38183.66;;;-145.39;28.67
37078;BME280;22989;55.998;37.212;2023-07-31T11:08:27;38023.72;;;-145.39;28.66
37078;BME280;22989;55.998;37.212;2023-07-31T11:13:29;38359.19;;;-145.39;28.91
37078;BME280;22989;55.998;37.212;2023-07-31T11:15:54;38487.94;;;-145.39;28.91
37078;BME280;22989;55.998;37.212;2023-07-31T11:18:20;38679.09;;;-145.39;29.18
37078;BME280;22989;55.998;37.212;2023-07-31T11:20:46;38523.03;;;-145.39;29.04
37078;BME280;22989;55.998;37.212;2023-07-31T11:23:11;38382.59;;;-145.39;29.05
37078;BME280;22989;55.998;37.212;2023-07-31T11:25:39;38281.16;;;-145.39;28.86
37078;BME280;22989;55.998;37.212;2023-07-31T11:28:15;38033.47;;;-145.39;28.88
37078;BME280;22989;55.998;37.212;2023-07-31T11:30:43;37805.28;;;-145.39;28.71
37078;BME280;22989;55.998;37.212;2023-07-31T11:33:11;37719.47;;;-145.39;28.65
37078;BME280;22989;55.998;37.212;2023-07-31T11:35:44;37588.81;;;-145.39;28.50
37078;BME280;22989;55.998;37.212;2023-07-31T11:38:12;37491.31;;;-145.39;28.56
37078;BME280;22989;55.998;37.212;2023-07-31T11:40:42;37360.66;;;-145.39;28.54
37078;BME280;22989;55.998;37.212;2023-07-31T11:43:08;37694.13;;;-145.39;28.65
37078;BME280;22989;55.998;37.212;2023-07-31T11:45:33;37606.34;;;-145.39;29.08
37078;BME280;22989;55.998;37.212;2023-07-31T11:48:01;37760.41;;;-145.39;29.03
37078;BME280;22989;55.998;37.212;2023-07-31T11:50:26;37647.31;;;-145.39;29.25
37078;BME280;22989;55.998;37.212;2023-07-31T11:52:57;37943.75;;;-145.39;29.09
37078;BME280;22989;55.998;37.212;2023-07-31T11:55:23;37998.34;;;-145.39;29.23
37078;BME280;22989;55.998;37.212;2023-07-31T11:57:50;38097.81;;;-145.39;29.59
37078;BME280;22989;55.998;37.212;2023-07-31T12:00:16;38107.56;;;-145.39;29.59
37078;BME280;22989;55.998;37.212;2023-07-31T12:02:43;38210.94;;;-145.39;29.83
37078;BME280;22989;55.998;37.212;2023-07-31T12:05:13;38236.31;;;-145.39;29.89
37078;BME280;22989;55.998;37.212;2023-07-31T12:07:45;38134.88;;;-145.39;29.81
37078;BME280;22989;55.998;37.212;2023-07-31T12:10:11;38244.09;;;-145.39;29.92
37078;BME280;22989;55.998;37.212;2023-07-31T12:12:37;38228.50;;;-145.39;29.91
37078;BME280;22989;55.998;37.212;2023-07-31T12:15:02;38047.13;;;-145.39;30.05
37078;BME280;22989;55.998;37.212;2023-07-31T12:17:38;38333.84;;;-145.39;29.91
37078;BME280;22989;55.998;37.212;2023-07-31T12:20:04;38378.69;;;-145.39;30.12
37078;BME280;22989;55.998;37.212;2023-07-31T12:22:30;38347.47;;;-145.39;30.21
37078;BME280;22989;55.998;37.212;2023-07-31T12:24:57;38218.75;;;-145.39;30.25
37078;BME280;22989;55.998;37.212;2023-07-31T12:27:23;38156.34;;;-145.39;30.12
37078;BME280;22989;55.998;37.212;2023-07-31T12:29:50;38214.84;;;-145.39;30.28
37078;BME280;22989;55.998;37.212;2023-07-31T12:32:25;38189.50;;;-145.39;30.18
37078;BME280;22989;55.998;37.212;2023-07-31T12:34:53;38132.94;;;-145.39;30.00
37078;BME280;22989;55.998;37.212;2023-07-31T12:37:20;38240.22;;;-145.39;30.09
37078;BME280;22989;55.998;37.212;2023-07-31T12:39:46;38560.09;;;-145.39;30.17
37078;BME280;22989;55.998;37.212;2023-07-31T12:42:12;38515.22;;;-145.39;30.34